Date,TemperatureHighF,TemperatureAvgF,TemperatureLowF,DewpointHighF,DewpointAvgF,DewpointLowF,HumidityHigh,HumidityAvg,HumidityLow,PressureMaxIn,PressureMinIn,WindSpeedMaxMPH,WindSpeedAvgMPH,GustSpeedMaxMPH,PrecipitationSumIn
2013-1-1,42,35,30,36,31,28,95,88,78,30.44,30.30,5,1,5,0.01
2013-1-2,49,36,30,38,30,25,90,80,56,30.30,30.13,3,0,3,0.01
2013-1-3,47,36,28,35,28,24,92,76,52,30.14,30.03,3,0,3,0.20
2013-1-4,50,43,37,46,41,35,96,92,84,30.25,30.12,5,1,5,0.04
2013-1-5,45,42,40,41,39,37,93,86,80,30.15,30.06,4,0,4,0.10
2013-1-6,45,42,40,42,40,38,94,91,88,30.14,29.93,4,0,4,0.06
2013-1-7,50,46,41,47,44,39,95,91,85,30.11,29.75,14,2,14,0.09
2013-1-8,52,47,42,49,45,40,97,92,86,30.10,29.68,12,2,12,0.62
2013-1-9,50,40,35,48,39,34,97,95,94,29.90,29.62,12,2,12,1.08
2013-1-10,38,36,31,36,34,29,96,94,92,30.06,29.88,4,0,4,0.06
2013-1-11,35,30,28,32,28,26,95,92,86,30.27,30.05,6,1,6,0.00
2013-1-12,37,30,26,32,27,24,94,88,69,30.39,30.26,7,1,7,0.01
2013-1-13,38,31,26,33,28,24,93,89,78,30.44,30.38,4,0,4,0.00
2013-1-14,37,35,33,33,31,30,90,87,83,30.51,30.40,3,0,3,0.01
2013-1-15,46,36,32,37,32,28,93,85,69,30.64,30.51,4,1,4,0.00
2013-1-16,44,35,30,39,32,28,94,89,76,30.62,30.46,3,1,3,0.00
2013-1-17,38,34,30,36,32,28,95,93,89,30.47,30.24,3,0,3,0.01
2013-1-18,37,34,33,36,33,31,96,95,94,30.30,30.20,5,0,5,0.00
2013-1-19,35,34,31,34,32,30,96,95,95,30.33,30.28,4,0,4,0.01
2013-1-20,45,35,32,43,34,31,97,95,90,30.34,30.21,4,0,4,0.00
2013-1-21,36,33,31,35,32,30,97,96,95,30.22,30.08,4,0,4,0.00
2013-1-22,39,35,31,38,34,30,97,96,94,30.09,29.86,2,0,2,0.00
2013-1-23,42,40,38,41,38,35,96,92,84,30.08,29.78,7,1,7,0.27
2013-1-24,45,42,40,41,40,39,95,91,80,30.15,30.00,4,0,4,0.15
2013-1-25,54,46,42,49,43,39,96,91,80,30.01,29.88,4,0,4,0.12
2013-1-26,44,42,41,42,40,38,95,91,87,29.99,29.83,7,1,7,0.29
2013-1-27,42,41,40,40,38,37,94,91,87,30.01,29.94,6,1,9,0.11
2013-1-28,42,41,39,41,39,38,96,95,93,30.04,29.95,4,0,4,0.34
2013-1-29,46,44,42,45,43,40,97,96,95,30.28,30.04,5,1,5,0.46
2013-1-30,47,46,44,46,45,43,97,97,96,30.33,30.27,4,1,4,0.18
2013-1-31,49,47,46,48,46,45,97,96,90,30.34,30.24,6,1,6,0.14
2013-2-1,52,46,42,48,44,40,97,94,85,30.35,30.28,4,1,4,0.00
2013-2-2,43,41,39,42,40,38,97,96,94,30.33,30.20,4,1,4,0.01
2013-2-3,47,44,39,44,42,38,97,95,90,30.25,30.15,4,1,4,0.08
2013-2-4,52,46,44,46,44,42,95,90,80,30.15,29.84,5,1,5,0.00
2013-2-5,51,46,44,46,43,41,94,89,75,29.89,29.78,8,2,9,0.16
2013-2-6,50,45,43,43,42,41,92,87,72,29.99,29.74,8,1,8,0.11
2013-2-7,55,45,38,43,39,35,90,80,57,30.13,29.74,12,2,12,0.07
2013-2-8,45,40,35,40,37,33,94,87,78,30.25,30.13,4,0,4,0.01
2013-2-9,44,42,40,41,39,37,93,90,85,30.29,30.20,3,0,3,0.01
2013-2-10,48,41,36,44,38,34,96,89,70,30.33,30.26,5,1,5,0.00
2013-2-11,47,44,41,42,40,39,94,89,81,30.30,30.26,3,0,3,0.05
2013-2-12,49,46,44,46,44,41,96,92,86,30.35,30.23,8,1,8,0.04
2013-2-13,49,45,44,46,43,42,95,91,88,30.44,30.25,6,1,6,0.05
2013-2-14,48,45,43,45,43,41,95,92,88,30.50,30.43,3,0,3,0.07
2013-2-15,58,46,41,49,43,38,97,89,66,30.49,30.12,5,1,5,0.01
2013-2-16,56,45,40,44,42,38,95,89,60,30.15,30.05,11,1,11,0.17
2013-2-17,46,43,41,42,39,36,93,86,78,30.19,30.06,4,1,4,0.03
2013-2-18,46,42,39,40,38,37,92,85,74,30.05,29.71,5,0,5,0.00
2013-2-19,51,43,37,40,37,33,90,79,55,29.95,29.68,8,1,8,0.00
2013-2-20,45,40,36,40,37,33,93,88,80,29.99,29.93,6,0,6,0.15
2013-2-21,44,42,40,40,39,38,95,89,84,30.01,29.94,12,2,12,0.03
2013-2-22,48,43,39,43,39,35,93,87,73,29.99,29.63,13,3,13,0.10
2013-2-23,49,43,40,41,38,35,88,81,68,30.31,29.85,6,1,6,0.00
2013-2-24,47,44,41,39,37,36,85,77,70,30.32,29.89,8,2,8,0.00
2013-2-25,55,45,40,40,37,32,90,75,48,30.25,29.83,11,2,11,0.09
2013-2-26,48,44,38,38,36,34,84,74,59,30.29,30.14,6,1,6,0.01
2013-2-27,49,44,41,43,40,37,93,86,74,30.25,30.15,4,0,4,0.28
2013-2-28,52,47,42,50,45,41,96,94,93,30.27,30.13,6,1,6,0.18
2013-3-1,56,53,51,51,50,49,96,89,81,30.31,30.22,8,2,8,0.10
2013-3-2,57,50,39,49,45,37,93,86,73,30.23,30.02,10,2,10,0.28
2013-3-3,51,42,37,41,36,33,93,80,54,30.25,30.15,6,1,6,0.00
2013-3-4,55,42,31,36,32,28,92,68,43,30.25,29.86,7,2,7,0.01
2013-3-5,50,45,42,40,35,28,88,67,51,29.87,29.67,6,1,6,0.00
2013-3-6,44,42,41,41,39,38,94,89,83,29.85,29.53,9,2,9,0.55
2013-3-7,52,44,40,45,41,39,95,91,78,30.04,29.84,4,1,4,0.25
2013-3-8,54,43,35,46,38,34,96,86,66,30.19,30.02,7,1,7,0.00
2013-3-9,61,45,34,48,38,32,95,79,52,30.44,30.19,5,1,5,0.01
2013-3-10,48,44,39,42,39,35,89,84,76,30.44,30.37,3,0,3,0.01
2013-3-11,51,46,42,45,42,40,93,86,74,30.39,30.11,4,0,4,0.03
2013-3-12,55,52,47,51,48,45,95,89,76,30.13,30.01,10,3,10,0.05
2013-3-13,52,51,50,50,49,47,95,92,89,30.15,30.04,10,2,10,0.19
2013-3-14,53,50,48,49,47,45,95,90,76,30.09,29.97,7,1,7,0.04
2013-3-15,60,52,48,52,48,45,96,88,72,30.15,30.08,9,2,9,0.00
2013-3-16,51,46,40,46,42,35,89,83,70,30.09,29.83,11,2,11,0.01
2013-3-17,52,42,39,39,36,35,89,80,57,30.14,29.90,8,2,8,0.05
2013-3-18,56,45,40,46,38,34,90,76,53,30.19,30.04,10,2,10,0.01
2013-3-19,56,44,36,42,37,33,89,78,47,30.19,29.55,6,1,6,0.33
2013-3-20,52,47,40,48,42,34,96,83,66,29.96,29.33,16,3,16,0.59
2013-3-21,48,41,38,39,36,34,89,82,63,30.16,29.94,7,2,7,0.05
2013-3-22,48,39,35,38,33,29,92,80,55,30.32,30.15,5,1,5,0.04
2013-3-23,55,42,34,39,32,28,87,69,41,30.34,30.25,5,1,5,0.00
2013-3-24,60,43,33,39,32,28,86,67,43,30.26,30.07,4,1,4,0.01
2013-3-25,63,50,37,37,32,28,72,52,33,30.08,29.88,5,1,5,0.00
2013-3-26,64,52,46,44,38,34,70,59,40,29.97,29.91,6,1,6,0.00
2013-3-27,59,50,46,47,42,36,88,73,60,29.94,29.89,4,1,4,0.02
2013-3-28,67,54,46,52,46,42,90,77,49,30.10,29.93,7,1,7,0.03
2013-3-29,68,54,45,53,45,41,88,72,44,30.20,30.08,7,1,7,0.00
2013-3-30,66,54,43,49,44,40,89,71,48,30.21,30.03,8,2,8,0.00
2013-3-31,72,57,45,50,44,39,81,63,39,30.04,29.86,6,1,6,0.01
2013-4-1,65,54,48,52,46,43,87,75,57,30.11,29.91,8,1,8,0.00
2013-4-2,56,52,50,48,46,44,84,79,73,30.15,30.10,6,1,6,0.00
2013-4-3,65,54,46,51,46,42,91,75,57,30.14,29.91,6,1,6,0.00
2013-4-4,55,53,50,53,49,45,94,86,76,29.93,29.59,6,1,6,0.36
2013-4-5,58,53,49,51,49,46,95,87,75,29.81,29.67,10,2,10,0.30
2013-4-6,54,48,46,48,45,42,94,87,75,29.87,29.65,8,2,8,0.44
2013-4-7,46,44,40,44,42,38,95,93,88,29.84,29.45,7,1,7,0.88
2013-4-8,56,48,43,50,44,41,94,88,73,30.22,29.84,3,0,3,0.03
2013-4-9,54,49,44,45,43,41,91,80,64,30.30,30.13,4,1,4,0.00
2013-4-10,60,52,48,52,46,43,94,82,71,30.21,29.89,9,2,9,0.21
2013-4-11,54,48,45,45,41,37,92,77,59,30.25,30.14,7,1,7,0.08
2013-4-12,46,44,42,44,40,37,95,84,72,30.14,29.63,8,1,8,0.17
2013-4-13,49,43,38,44,39,36,92,87,77,29.95,29.71,9,1,9,0.36
2013-4-14,56,46,40,45,39,33,93,76,47,29.96,29.86,7,1,7,0.04
2013-4-15,56,47,41,42,39,36,88,75,50,30.13,29.89,9,1,9,0.00
2013-4-16,55,46,39,45,39,35,90,75,49,30.34,30.13,5,1,5,0.02
2013-4-17,62,49,39,45,39,35,87,69,38,30.40,30.34,7,1,7,0.00
2013-4-18,51,48,45,47,43,38,93,83,76,30.40,30.15,5,1,5,0.16
2013-4-19,54,51,48,51,49,47,95,93,91,30.15,30.01,6,1,6,0.54
2013-4-20,54,49,47,50,46,45,95,91,81,30.23,30.15,5,1,5,0.30
2013-4-21,55,47,44,47,43,38,95,85,65,30.32,30.17,9,1,9,0.11
2013-4-22,60,49,38,44,36,26,93,65,29,30.47,30.32,8,2,10,0.00
2013-4-23,63,51,38,43,36,28,83,60,27,30.37,30.19,9,1,9,0.00
2013-4-24,69,56,42,45,38,30,85,55,25,30.27,30.01,9,1,9,0.00
2013-4-25,75,60,44,46,41,34,73,52,31,30.09,29.99,5,1,5,0.00
2013-4-26,67,57,49,51,46,41,85,68,54,30.21,30.09,6,1,6,0.00
2013-4-27,57,54,52,48,45,41,84,72,62,30.17,30.10,8,1,8,0.00
2013-4-28,59,51,47,51,45,41,91,80,57,30.17,29.89,9,2,9,0.06
2013-4-29,55,49,44,46,41,36,92,74,51,30.12,29.86,8,1,8,0.10
2013-4-30,57,46,38,42,36,32,86,69,44,30.39,30.11,8,1,8,0.10
2013-5-1,64,51,37,41,35,31,85,59,31,30.52,30.39,7,1,7,0.00
2013-5-2,67,56,46,46,40,36,75,57,40,30.50,30.32,9,2,9,0.00
2013-5-3,70,58,46,51,45,39,82,63,46,30.34,30.18,8,2,8,0.01
2013-5-4,76,64,52,51,45,37,78,54,25,30.19,29.96,10,2,10,0.00
2013-5-5,81,68,53,51,46,41,70,47,24,29.96,29.74,7,2,7,0.00
2013-5-6,86,70,54,53,47,43,69,47,23,29.82,29.72,8,1,8,0.00
2013-5-7,73,61,53,56,50,45,84,69,53,29.96,29.79,7,1,7,0.00
2013-5-8,67,58,52,55,50,47,85,77,64,30.10,29.96,5,1,5,0.00
2013-5-9,72,59,52,58,51,46,88,74,47,30.18,30.07,7,1,7,0.00
2013-5-10,79,65,51,58,52,46,86,65,40,30.16,30.07,5,1,5,0.00
2013-5-11,80,67,56,56,50,44,71,57,42,30.13,29.95,5,1,5,0.00
2013-5-12,70,63,59,58,55,50,89,76,61,30.06,29.97,7,1,7,0.10
2013-5-13,62,57,50,57,51,41,91,79,57,30.14,29.89,16,2,16,0.17
2013-5-14,65,56,48,46,44,41,82,66,46,30.18,30.07,5,1,5,0.00
2013-5-15,64,55,48,50,46,42,85,73,47,30.08,29.97,7,1,7,0.01
2013-5-16,71,60,54,55,51,49,88,74,48,29.97,29.82,8,1,8,0.01
2013-5-17,63,58,54,51,49,46,85,73,58,30.01,29.90,6,1,6,0.01
2013-5-18,62,56,52,49,47,45,82,72,61,30.23,30.01,6,1,6,0.00
2013-5-19,65,57,54,52,49,46,83,74,58,30.36,30.23,6,2,6,0.00
2013-5-20,67,56,47,53,48,42,87,74,53,30.31,29.86,6,1,6,0.00
2013-5-21,57,51,47,50,46,43,91,83,75,29.86,29.73,9,1,9,0.42
2013-5-22,53,49,45,48,45,43,91,86,78,29.89,29.80,5,0,5,0.08
2013-5-23,57,50,46,48,45,42,91,81,64,29.96,29.87,7,1,7,0.05
2013-5-24,64,55,48,50,46,43,90,75,53,30.00,29.92,5,1,5,0.03
2013-5-25,64,56,51,49,47,45,86,73,51,29.99,29.92,5,1,5,0.00
2013-5-26,64,56,51,55,50,47,89,81,69,29.95,29.89,9,1,9,0.08
2013-5-27,59,56,52,55,52,48,91,87,79,29.92,29.67,6,0,6,0.22
2013-5-28,63,56,53,53,50,47,91,79,67,29.83,29.72,8,1,8,0.01
2013-5-29,61,54,50,52,49,47,91,83,66,29.92,29.64,8,1,8,0.08
2013-5-30,61,55,50,49,47,46,87,75,62,30.20,29.91,9,2,9,0.01
2013-5-31,69,58,52,51,47,43,85,68,44,30.29,30.19,7,1,7,0.00
2013-6-1,72,61,53,53,48,44,79,63,42,30.20,30.01,8,1,8,0.00
2013-6-2,71,62,54,54,50,46,84,67,49,30.04,30.00,8,2,8,0.04
2013-6-3,73,61,53,56,51,47,86,71,50,30.08,30.01,7,2,7,0.00
2013-6-4,78,66,52,58,51,46,85,62,38,30.09,29.98,8,2,8,0.00
2013-6-5,77,66,55,58,52,46,72,62,47,30.05,29.99,10,2,10,0.00
2013-6-6,79,66,55,58,50,44,81,59,33,30.02,29.96,10,2,11,0.00
2013-6-7,67,62,56,55,49,44,74,63,50,30.11,29.99,10,2,10,0.00
2013-6-8,68,60,54,53,49,46,77,68,56,30.15,30.06,8,2,8,0.00
2013-6-9,68,58,53,52,48,45,80,69,51,30.08,29.98,11,2,11,0.00
2013-6-10,70,60,51,50,47,43,79,65,44,30.00,29.84,8,2,8,0.00
2013-6-11,67,58,53,54,47,45,80,68,50,30.05,29.90,12,3,12,0.10
2013-6-12,68,59,53,50,47,45,79,67,47,30.10,30.05,11,2,11,0.00
2013-6-13,71,60,54,52,49,47,81,67,45,30.17,30.09,10,2,10,0.00
2013-6-14,67,60,55,51,49,47,76,68,54,30.18,30.01,8,2,8,0.00
2013-6-15,74,63,52,55,51,46,88,66,46,30.01,29.88,8,2,8,0.00
2013-6-16,74,64,56,58,54,49,83,68,54,30.05,29.95,6,2,6,0.00
2013-6-17,77,66,57,56,52,48,80,63,37,30.05,29.85,8,2,10,0.01
2013-6-18,74,64,57,54,50,44,82,62,34,29.94,29.84,9,2,9,0.00
2013-6-19,65,60,56,54,51,48,81,73,61,29.96,29.88,8,2,8,0.00
2013-6-20,60,56,53,55,52,49,95,85,69,30.07,29.91,8,2,8,1.15
2013-6-21,67,59,53,56,53,51,95,83,62,30.12,30.06,5,1,5,0.03
2013-6-22,78,65,53,59,53,49,90,68,42,30.08,29.81,6,2,6,0.00
2013-6-23,70,65,61,62,58,53,86,76,68,29.81,29.56,5,1,5,0.17
2013-6-24,68,62,56,60,56,53,93,81,62,29.66,29.54,9,2,9,0.08
2013-6-25,74,63,57,60,56,53,93,80,50,29.82,29.63,13,1,13,0.35
2013-6-26,71,64,58,61,57,54,92,81,66,30.04,29.81,9,1,9,0.06
2013-6-27,70,65,61,63,60,55,91,84,75,30.16,30.00,5,0,5,0.11
2013-6-28,87,73,61,67,62,59,92,72,45,30.15,30.00,8,2,8,0.00
2013-6-29,85,74,66,66,62,58,81,66,49,30.07,29.95,6,1,6,0.00
2013-6-30,91,77,63,67,62,54,77,62,38,29.98,29.82,8,2,8,0.00
2013-7-1,88,76,67,66,61,57,73,61,48,29.99,29.88,8,2,8,0.00
2013-7-2,80,71,63,63,56,51,77,61,41,30.07,29.99,11,2,11,0.00
2013-7-3,78,68,60,58,52,48,69,58,39,30.11,30.01,10,3,10,0.00
2013-7-4,71,63,58,55,52,49,79,68,55,30.09,29.99,6,1,6,0.00
2013-7-5,74,65,56,57,54,50,83,69,54,29.99,29.91,8,1,8,0.00
2013-7-6,79,68,58,58,54,52,83,64,42,29.94,29.83,8,2,8,0.00
2013-7-7,77,66,60,61,56,51,83,71,57,29.92,29.84,6,1,6,0.00
2013-7-8,81,67,57,61,56,52,85,69,43,30.05,29.91,6,2,6,0.00
2013-7-9,83,71,60,60,56,51,79,59,39,30.07,29.96,9,2,9,0.00
2013-7-10,72,64,59,58,54,49,79,69,60,30.03,29.91,10,2,10,0.00
2013-7-11,69,61,56,53,50,48,75,67,52,30.04,29.95,10,2,10,0.00
2013-7-12,68,60,54,54,50,46,77,70,56,30.06,29.97,7,1,7,0.00
2013-7-13,76,64,51,55,49,45,80,61,39,30.16,30.06,9,2,9,0.00
2013-7-14,83,67,53,56,49,44,77,54,28,30.09,29.95,12,2,12,0.00
2013-7-15,80,68,56,56,51,47,77,55,34,30.01,29.86,13,3,13,0.00
2013-7-16,85,73,62,56,51,46,60,47,32,29.87,29.76,10,2,10,0.00
2013-7-17,72,66,61,58,56,52,83,70,51,30.15,29.84,8,2,8,0.05
2013-7-18,78,67,60,60,56,52,80,68,52,30.19,30.08,6,2,6,0.00
2013-7-19,80,67,57,62,57,52,85,70,50,30.13,30.00,9,2,9,0.00
2013-7-20,78,65,58,62,56,52,88,74,55,30.05,29.92,5,2,5,0.00
2013-7-21,77,65,57,62,57,53,88,75,58,29.94,29.86,6,1,6,0.00
2013-7-22,81,66,57,62,57,53,89,73,49,30.02,29.90,6,2,7,0.00
2013-7-23,84,71,59,62,55,51,82,61,33,30.02,29.93,7,2,7,0.00
2013-7-24,84,71,60,60,53,48,75,54,31,30.02,29.96,9,2,9,0.00
2013-7-25,84,71,57,56,52,48,70,53,31,30.07,29.99,8,2,8,0.00
2013-7-26,85,70,58,56,50,42,74,53,26,30.11,30.04,10,2,10,0.00
2013-7-27,78,66,56,55,51,47,78,58,41,30.12,29.96,8,2,8,0.00
2013-7-28,70,62,55,56,52,49,84,71,57,29.99,29.92,12,2,12,0.00
2013-7-29,75,65,57,57,54,51,81,69,54,29.97,29.91,5,1,5,0.00
2013-7-30,77,66,57,59,55,52,84,68,50,30.09,29.96,6,2,6,0.00
2013-7-31,69,63,58,61,56,52,89,79,69,30.08,29.95,7,1,7,0.00
2013-8-1,66,62,56,57,55,52,88,79,69,30.02,29.99,7,2,7,0.00
2013-8-2,61,60,58,58,56,54,91,87,79,30.08,30.01,7,1,7,0.14
2013-8-3,73,65,60,62,59,56,93,82,63,30.08,30.01,7,2,7,0.00
2013-8-4,80,68,57,63,58,52,88,72,48,30.02,29.90,8,2,8,0.00
2013-8-5,86,72,59,63,57,53,85,62,35,29.97,29.88,9,2,9,0.00
2013-8-6,88,72,59,61,54,50,75,57,32,29.97,29.87,7,2,7,0.00
2013-8-7,86,72,60,60,55,51,78,58,34,29.97,29.90,8,2,8,0.00
2013-8-8,83,69,60,62,56,53,84,66,47,30.00,29.90,9,2,9,0.00
2013-8-9,82,71,60,60,56,52,76,60,45,29.92,29.80,8,2,8,0.00
2013-8-10,77,68,60,64,60,56,88,76,58,29.97,29.85,7,2,7,0.08
2013-8-11,76,66,59,58,56,53,82,70,50,30.02,29.95,7,2,7,0.01
2013-8-12,78,68,61,58,56,53,78,67,48,30.03,29.96,7,2,7,0.00
2013-8-13,82,69,60,59,56,53,81,64,39,30.06,29.89,6,2,6,0.00
2013-8-14,79,69,61,61,57,53,81,69,48,29.93,29.87,7,1,7,0.01
2013-8-15,69,67,63,65,62,59,89,85,80,29.96,29.88,3,0,3,0.05
2013-8-16,84,71,62,66,60,49,92,71,30,29.97,29.90,6,1,6,0.00
2013-8-17,78,70,64,62,58,55,74,66,53,30.04,29.96,8,2,8,0.00
2013-8-18,65,64,62,56,55,54,76,73,71,30.06,30.03,3,1,3,0.00
2013-8-19,79,68,62,60,56,51,75,65,49,30.07,30.02,8,1,8,0.00
2013-8-20,75,66,59,57,52,48,76,62,47,30.12,30.02,10,3,10,0.00
2013-8-21,79,68,56,56,52,48,80,59,44,30.05,29.90,8,2,8,0.00
2013-8-22,83,70,59,58,53,49,73,58,38,29.91,29.76,7,1,7,0.00
2013-8-23,75,68,63,59,56,54,80,67,53,29.85,29.78,8,2,8,0.00
2013-8-24,76,66,62,58,55,53,79,68,49,29.88,29.81,9,2,9,0.00
2013-8-25,72,65,57,58,54,50,81,69,55,29.90,29.82,11,1,11,0.01
2013-8-26,74,66,63,61,57,52,82,73,47,29.91,29.81,10,1,10,0.05
2013-8-27,79,69,63,62,58,54,82,70,53,29.92,29.75,6,1,6,0.01
2013-8-28,80,70,62,65,60,56,89,73,54,29.85,29.78,5,1,5,0.15
2013-8-29,73,68,65,66,63,60,91,85,71,29.97,29.81,5,1,5,0.48
2013-8-30,79,68,62,62,58,54,89,71,43,30.10,29.97,8,2,8,0.01
2013-8-31,79,68,58,60,56,52,88,68,50,30.04,29.80,8,2,8,0.00
2013-9-1,81,69,60,62,58,55,84,69,49,29.85,29.75,6,1,6,0.00
2013-9-2,82,71,62,62,58,55,79,64,46,29.91,29.82,6,2,6,0.00
2013-9-3,75,66,62,65,60,56,90,81,65,29.98,29.89,4,1,4,0.19
2013-9-4,70,65,61,62,59,56,89,83,74,30.01,29.94,6,1,6,0.01
2013-9-5,66,62,60,61,59,58,94,88,81,30.00,29.88,8,2,8,0.50
2013-9-6,71,63,60,64,61,59,96,91,76,30.06,29.88,7,1,7,1.26
2013-9-7,74,65,62,64,60,57,91,83,66,30.06,29.96,7,1,7,0.00
2013-9-8,78,67,58,65,60,56,92,78,56,30.06,29.97,5,1,5,0.00
2013-9-9,78,66,58,66,59,56,92,79,57,30.02,29.93,8,2,8,0.00
2013-9-10,78,67,57,64,59,55,93,78,61,29.95,29.84,8,2,8,0.00
2013-9-11,91,75,60,68,59,55,87,62,33,29.89,29.82,7,2,7,0.00
2013-9-12,80,70,62,64,60,56,87,71,55,29.96,29.86,5,1,6,0.00
2013-9-13,66,64,61,61,59,57,88,83,77,29.92,29.82,5,1,5,0.00
2013-9-14,71,65,61,63,60,58,90,84,75,29.83,29.68,5,1,5,0.00
2013-9-15,64,62,59,61,59,56,94,91,87,29.76,29.66,5,1,5,0.26
2013-9-16,68,62,58,60,58,54,93,86,76,29.88,29.76,8,2,8,0.02
2013-9-17,62,59,57,55,54,52,86,81,71,29.88,29.81,5,1,5,0.00
2013-9-18,71,62,56,57,53,51,88,75,55,30.02,29.88,6,1,6,0.00
2013-9-19,80,64,51,57,52,46,86,67,40,29.99,29.71,5,1,5,0.00
2013-9-20,76,64,58,58,54,50,86,69,49,29.71,29.54,8,1,8,0.05
2013-9-21,72,62,57,57,54,52,87,76,56,29.67,29.60,8,2,8,0.00
2013-9-22,62,58,56,56,53,50,90,83,69,29.68,29.52,10,2,10,0.07
2013-9-23,62,57,54,55,52,48,90,83,74,29.91,29.68,9,2,9,0.15
2013-9-24,65,56,52,52,49,46,88,78,55,29.91,29.78,8,1,8,0.01
2013-9-25,59,53,49,50,48,46,92,85,68,29.97,29.80,7,2,7,0.06
2013-9-26,64,54,47,53,48,44,92,82,60,30.07,29.96,7,1,7,0.01
2013-9-27,56,55,52,52,50,48,91,85,82,30.06,29.78,8,2,8,0.09
2013-9-28,59,56,52,58,54,50,96,93,86,29.79,29.29,14,2,14,1.21
2013-9-29,56,54,52,52,50,47,94,88,81,29.50,29.11,10,2,10,0.51
2013-9-30,58,53,49,51,48,45,92,85,73,29.87,29.36,15,3,15,0.09
2013-10-1,58,52,49,50,47,45,92,83,62,30.06,29.85,8,2,8,0.13
2013-10-2,54,51,50,49,48,46,91,87,80,30.12,29.99,6,1,6,0.25
2013-10-3,58,52,47,50,47,44,90,84,69,30.39,30.12,6,1,6,0.01
2013-10-4,65,53,46,53,47,42,93,81,57,30.41,30.28,5,1,5,0.00
2013-10-5,71,56,46,54,48,43,91,75,47,30.30,30.07,6,1,6,0.00
2013-10-6,74,58,47,56,48,43,92,71,40,30.07,29.82,9,1,9,0.00
2013-10-7,59,55,53,48,48,46,82,77,66,29.95,29.92,7,3,7,0.01
2013-10-8,56,52,46,51,46,42,89,81,65,30.02,29.90,8,1,8,0.14
2013-10-9,60,50,43,50,44,39,91,82,64,30.07,29.89,4,1,4,0.00
2013-10-10,57,52,48,50,47,44,89,83,74,30.02,29.87,4,0,4,0.03
2013-10-11,55,52,49,51,48,46,92,89,85,30.09,30.00,2,0,2,0.06
2013-10-12,57,51,47,51,48,44,93,87,73,30.15,30.01,8,1,8,0.05
2013-10-13,57,49,43,50,46,41,94,87,76,30.30,30.15,6,1,6,0.01
2013-10-14,60,49,43,51,44,40,94,83,61,30.37,30.30,7,1,7,0.00
2013-10-15,61,50,43,53,46,40,93,85,73,30.33,30.12,4,1,4,0.00
2013-10-16,55,51,47,50,47,44,93,87,82,30.15,30.09,7,1,7,0.00
2013-10-17,58,51,47,52,47,44,91,87,78,30.22,30.15,5,1,5,0.00
2013-10-18,61,50,44,54,46,42,95,88,74,30.19,30.09,4,1,4,0.00
2013-10-19,50,47,45,48,45,43,95,92,90,30.14,30.09,4,1,4,0.01
2013-10-20,50,48,47,48,46,45,94,93,91,30.15,30.09,4,1,4,0.00
2013-10-21,51,48,46,49,47,45,95,93,90,30.11,30.04,6,1,6,0.00
2013-10-22,59,50,46,54,48,45,96,93,83,30.06,29.97,6,1,6,0.00
2013-10-23,61,50,45,54,47,44,96,91,74,30.00,29.92,3,1,3,0.00
2013-10-24,52,48,46,49,47,44,96,93,91,30.07,29.97,3,0,3,0.01
2013-10-25,52,49,46,49,47,44,95,93,90,30.26,30.07,3,0,3,0.02
2013-10-26,53,50,45,49,47,44,95,89,82,30.28,30.13,9,1,9,0.00
2013-10-27,56,50,46,50,46,43,95,87,74,30.15,29.85,10,1,10,0.14
2013-10-28,56,50,44,44,39,33,93,67,43,29.90,29.83,11,3,11,0.01
2013-10-29,58,46,38,43,38,33,88,75,54,29.98,29.89,5,1,5,0.00
2013-10-30,55,48,40,47,42,36,88,80,71,30.07,29.97,8,1,8,0.02
2013-10-31,54,51,50,50,47,43,91,86,75,30.20,30.04,5,1,5,0.01
2013-11-1,59,54,52,52,50,48,92,85,73,30.22,29.79,2,0,3,0.00
2013-11-2,54,50,45,50,45,39,95,84,69,29.83,29.43,15,3,22,0.51
2013-11-3,52,45,41,44,40,38,91,85,67,30.05,29.83,7,1,7,0.14
2013-11-4,49,44,38,44,39,36,94,85,65,30.13,29.99,4,1,4,0.04
2013-11-5,54,47,44,49,45,40,95,91,82,30.20,29.95,7,1,7,0.02
2013-11-6,51,48,44,47,45,42,94,90,84,30.26,29.98,5,1,5,0.06
2013-11-7,50,49,48,49,47,46,96,94,88,29.98,29.66,10,2,10,0.73
2013-11-8,54,50,48,47,45,44,92,85,74,30.08,29.91,6,1,7,0.00
2013-11-9,51,47,40,45,44,38,94,88,80,30.07,30.01,6,1,6,0.07
2013-11-10,49,47,45,46,44,43,94,91,87,30.10,30.03,8,2,8,0.04
2013-11-11,59,49,44,51,45,41,94,87,73,30.10,29.95,5,1,5,0.00
2013-11-12,57,52,47,54,49,43,94,89,85,30.30,29.96,7,1,7,0.12
2013-11-13,54,52,50,50,49,46,92,88,81,30.37,30.25,8,1,8,0.00
2013-11-14,50,48,44,47,45,42,93,91,87,30.25,29.99,4,0,4,0.11
2013-11-15,48,45,44,46,43,41,95,92,88,30.00,29.27,10,2,12,0.18
2013-11-16,48,45,41,44,40,38,94,84,72,29.72,29.29,10,2,10,0.05
2013-11-17,53,47,44,47,43,39,90,86,81,29.85,29.72,11,3,11,0.00
2013-11-18,51,49,48,50,48,45,96,94,89,29.84,29.50,7,2,7,0.12
2013-11-19,52,44,38,51,39,24,96,83,54,30.01,29.49,10,2,10,0.01
2013-11-20,43,37,33,32,28,25,85,72,51,30.45,30.01,10,2,10,0.00
2013-11-21,44,35,29,31,28,26,88,76,53,30.61,30.45,8,2,8,0.01
2013-11-22,46,37,31,34,29,26,86,75,53,30.59,30.38,6,2,7,0.00
2013-11-23,51,40,34,37,32,28,82,73,51,30.38,30.13,6,2,6,0.00
2013-11-24,52,41,34,44,36,30,90,82,71,30.20,30.10,4,1,4,0.00
2013-11-25,53,41,35,44,37,32,93,84,70,30.26,30.19,2,0,2,0.01
2013-11-26,51,43,37,43,39,34,93,85,68,30.21,30.04,2,0,2,0.00
2013-11-27,56,47,39,46,40,36,87,78,65,30.04,29.90,7,1,7,0.00
2013-11-28,51,41,36,46,38,33,93,89,83,30.12,29.97,3,0,3,0.01
2013-11-29,47,44,39,45,42,36,94,92,88,30.26,30.12,5,1,5,0.00
2013-11-30,50,48,45,47,45,43,94,89,84,30.27,30.03,10,2,10,0.07
2013-12-1,53,50,43,51,47,39,96,88,81,30.03,29.68,14,4,14,0.02
2013-12-2,46,40,37,39,36,32,91,83,67,30.00,29.75,7,1,8,0.07
2013-12-3,39,34,30,33,26,23,85,73,55,30.26,30.00,15,3,15,0.00
2013-12-4,38,31,27,30,25,23,90,80,67,30.30,30.23,6,1,6,0.00
2013-12-5,34,29,25,27,23,16,87,79,59,30.27,30.13,6,1,6,0.01
2013-12-6,33,28,24,18,14,10,62,55,44,30.18,30.08,10,2,10,0.00
2013-12-7,30,24,20,12,10,7,66,54,37,30.37,30.17,8,2,8,0.00
2013-12-8,33,26,20,21,18,11,77,69,58,30.51,30.36,4,1,4,0.00
2013-12-9,33,30,24,27,23,18,81,75,70,30.51,30.43,4,0,4,0.00
2013-12-10,38,35,33,34,31,26,86,82,77,30.43,30.36,3,0,4,0.00
2013-12-11,39,34,30,35,31,27,91,88,83,30.37,30.11,3,0,3,0.00
2013-12-12,41,38,34,40,35,31,94,91,82,30.11,29.99,5,1,6,0.15
2013-12-13,47,45,41,45,43,40,95,95,94,30.37,30.07,5,1,5,0.03
2013-12-14,48,46,44,45,44,42,94,92,88,30.38,30.26,6,1,6,0.00
2013-12-15,50,48,46,47,46,44,95,93,87,30.40,30.26,6,2,6,0.14
2013-12-16,48,44,41,46,43,39,95,94,90,30.44,30.22,3,0,3,0.01
2013-12-17,44,42,40,42,40,38,96,94,92,30.22,30.06,6,1,6,0.02
2013-12-18,43,42,37,41,37,32,94,85,71,30.11,29.97,10,2,10,0.07
2013-12-19,39,35,30,33,29,27,88,79,66,30.29,30.09,8,1,8,0.00
2013-12-20,42,36,32,40,34,29,95,91,82,30.15,29.66,13,1,13,0.34
2013-12-21,44,42,39,43,40,38,96,96,95,30.12,29.79,6,1,6,0.18
2013-12-22,48,47,44,48,46,43,98,96,96,30.24,30.10,6,1,6,0.32
2013-12-23,53,48,42,49,46,39,98,92,83,30.45,30.07,14,3,14,0.04
2013-12-24,47,40,35,44,38,33,95,91,82,30.56,30.45,4,1,4,0.00
2013-12-25,41,36,33,38,34,32,95,93,89,30.46,30.32,4,1,4,0.00
2013-12-26,45,38,34,42,36,33,96,93,88,30.34,30.13,2,0,2,0.01
2013-12-27,44,40,36,43,39,35,96,95,94,30.32,30.05,5,1,6,0.04
2013-12-28,47,43,38,45,41,36,96,94,89,30.47,30.31,3,1,3,0.01
2013-12-29,42,40,38,41,39,36,96,95,94,30.43,30.25,3,0,4,0.02
2013-12-30,43,41,39,42,40,38,97,95,94,30.26,30.07,4,0,8,0.01
2013-12-31,45,43,39,44,42,38,96,94,91,30.33,30.14,4,0,4,0.01
2014-1-1,44,41,37,43,40,36,97,96,94,30.35,30.20,4,0,4,0.02
2014-1-2,49,45,42,45,42,40,96,92,78,30.20,29.84,14,2,14,0.31